Time;durP1;ratioP1;P1;durP2;ratioP2;P2;SDS_P1;SDS_P2;PMS_P1;PMS_P2;Temp;Humidity;BMP_temperature;BMP_pressure;BME280_temperature;BME280_humidity;BME280_pressure;Samples;Min_cycle;Max_cycle;Signal;HPM_P1;HPM_P2
2023/12/20 00:00:57;;;;;;;1999.90;999.90;;;5.90;99.90;;;;;;5062211;28;20040;-82
2023/12/20 00:03:24;;;;;;;1999.90;999.90;;;5.90;99.90;;;;;;5073290;28;20032;-83
2023/12/20 00:05:50;;;;;;;1999.90;999.90;;;5.80;99.90;;;;;;5067683;28;20524;-82
2023/12/20 00:08:16;;;;;;;1999.90;999.90;;;5.70;99.90;;;;;;5090109;28;20086;-83
2023/12/20 00:10:43;;;;;;;1999.90;999.90;;;5.70;99.90;;;;;;5084217;28;20071;-82
2023/12/20 00:13:08;;;;;;;1999.90;999.90;;;5.60;99.90;;;;;;5085396;28;20115;-83
2023/12/20 00:15:34;;;;;;;1999.90;999.90;;;5.60;99.90;;;;;;5073715;28;20457;-83
2023/12/20 00:18:00;;;;;;;1999.90;999.90;;;5.60;99.90;;;;;;5084904;28;20131;-83
2023/12/20 00:20:27;;;;;;;1999.90;999.90;;;5.70;99.90;;;;;;5075737;28;20044;-82
2023/12/20 00:22:56;;;;;;;1999.90;999.90;;;5.80;99.90;;;;;;5060968;28;20396;-82
2023/12/20 00:25:21;;;;;;;1999.90;999.90;;;5.80;99.90;;;;;;5083477;28;20426;-83
2023/12/20 00:27:47;;;;;;;1999.90;999.90;;;5.80;99.90;;;;;;5059680;28;20036;-82
2023/12/20 00:30:13;;;;;;;1999.90;999.90;;;5.70;99.90;;;;;;5078458;28;20500;-82
2023/12/20 00:32:38;;;;;;;1999.90;999.90;;;5.80;99.90;;;;;;5075122;28;20076;-82
2023/12/20 00:35:04;;;;;;;1999.90;999.90;;;5.80;99.90;;;;;;5068312;28;20115;-83
2023/12/20 00:37:30;;;;;;;1999.90;999.90;;;5.80;99.90;;;;;;5079325;28;20036;-82
2023/12/20 00:39:55;;;;;;;1999.90;999.90;;;5.80;99.90;;;;;;5079362;28;20040;-83
2023/12/20 00:42:21;;;;;;;1999.90;999.90;;;5.70;99.90;;;;;;5063626;28;20123;-83
2023/12/20 00:44:46;;;;;;;1999.90;999.90;;;5.80;99.90;;;;;;5087249;28;20496;-83
2023/12/20 00:47:13;;;;;;;1999.90;999.90;;;5.80;99.90;;;;;;5075992;28;20044;-83
2023/12/20 00:49:38;;;;;;;1999.90;999.90;;;5.80;99.90;;;;;;5064848;28;20171;-82
2023/12/20 00:52:04;;;;;;;1999.90;999.90;;;5.80;99.90;;;;;;5101198;28;20150;-83
2023/12/20 00:54:30;;;;;;;1999.90;999.90;;;5.80;99.90;;;;;;5083420;28;20047;-82
2023/12/20 00:56:56;;;;;;;1999.90;999.90;;;5.80;99.90;;;;;;5079382;28;20260;-83
2023/12/20 00:59:21;;;;;;;1999.90;999.90;;;5.80;99.90;;;;;;5067599;28;20543;-82
2023/12/20 01:01:47;;;;;;;1999.90;999.90;;;5.80;99.90;;;;;;5084411;28;20561;-84
2023/12/20 01:04:13;;;;;;;1999.90;999.90;;;5.80;99.90;;;;;;5059940;28;20380;-83
2023/12/20 01:06:38;;;;;;;1999.90;999.90;;;5.80;99.90;;;;;;5098756;28;20058;-82
2023/12/20 01:09:04;;;;;;;1999.90;999.90;;;5.80;99.90;;;;;;5066121;28;20169;-82
2023/12/20 01:11:30;;;;;;;1999.90;999.90;;;5.80;99.90;;;;;;5103643;28;20039;-85
2023/12/20 01:13:55;;;;;;;1999.90;999.90;;;5.90;99.90;;;;;;5085087;28;20614;-82
2023/12/20 01:16:21;;;;;;;1999.90;999.90;;;6.00;99.90;;;;;;5065647;28;20039;-82
2023/12/20 01:18:46;;;;;;;1999.90;999.90;;;6.00;99.90;;;;;;5084117;28;20048;-83
2023/12/20 01:21:12;;;;;;;1999.90;999.90;;;6.00;99.90;;;;;;5071954;28;20480;-83
2023/12/20 01:23:38;;;;;;;1999.90;999.90;;;6.00;99.90;;;;;;5064764;28;20047;-83
2023/12/20 01:26:05;;;;;;;1999.90;999.90;;;6.00;99.90;;;;;;5085668;28;20039;-82
2023/12/20 01:28:30;;;;;;;1999.90;999.90;;;6.00;99.90;;;;;;5064341;28;20217;-83
2023/12/20 01:30:57;;;;;;;1999.90;999.90;;;6.00;99.90;;;;;;5079133;28;20165;-81
2023/12/20 01:33:23;;;;;;;1999.90;999.90;;;6.00;99.90;;;;;;5084257;28;20084;-81
2023/12/20 01:35:48;;;;;;;1999.90;999.90;;;6.20;99.90;;;;;;5091982;28;20036;-82
2023/12/20 01:38:14;;;;;;;1999.90;999.90;;;6.10;99.90;;;;;;5066357;28;20042;-82
2023/12/20 01:40:39;;;;;;;1999.90;999.90;;;6.20;99.90;;;;;;5066220;28;20036;-84
2023/12/20 01:43:08;;;;;;;1999.90;999.90;;;6.30;99.90;;;;;;5089220;28;20046;-82
2023/12/20 01:45:34;;;;;;;1999.90;999.90;;;6.30;99.90;;;;;;5063209;28;20036;-83
2023/12/20 01:48:01;;;;;;;1999.90;999.90;;;6.30;99.90;;;;;;5080289;28;20056;-83
2023/12/20 01:50:28;;;;;;;1999.90;999.90;;;6.30;99.90;;;;;;5076989;28;20079;-82
2023/12/20 01:52:57;;;;;;;1999.90;999.90;;;6.20;99.90;;;;;;5058914;28;20044;-82
2023/12/20 01:55:24;;;;;;;1999.90;999.90;;;6.20;99.90;;;;;;5059394;28;20048;-82
2023/12/20 01:57:50;;;;;;;1999.90;999.90;;;6.10;99.90;;;;;;5077025;28;20051;-82
2023/12/20 02:00:17;;;;;;;1999.90;999.90;;;6.00;99.90;;;;;;5072313;28;20043;-82
2023/12/20 02:02:45;;;;;;;1999.90;999.90;;;6.00;99.90;;;;;;5098849;28;20116;-83
2023/12/20 02:05:11;;;;;;;1999.90;999.90;;;6.00;99.90;;;;;;5097322;28;20063;-82
2023/12/20 02:07:36;;;;;;;1999.90;999.90;;;6.00;99.90;;;;;;5087289;28;20043;-82
2023/12/20 02:10:04;;;;;;;1999.90;999.90;;;6.10;99.90;;;;;;5066480;28;20048;-82
2023/12/20 02:12:29;;;;;;;1999.90;999.90;;;6.10;99.90;;;;;;5063622;28;20043;-82
2023/12/20 02:14:55;;;;;;;1999.90;999.90;;;6.10;99.90;;;;;;5085355;28;20104;-83
2023/12/20 02:17:22;;;;;;;1999.90;999.90;;;6.20;99.90;;;;;;5076004;28;20046;-83
2023/12/20 02:19:48;;;;;;;1999.90;999.90;;;6.30;99.90;;;;;;5083395;28;20085;-82
2023/12/20 02:22:13;;;;;;;1999.90;999.90;;;6.30;99.90;;;;;;5060227;28;20032;-82
2023/12/20 02:24:39;;;;;;;1999.90;999.90;;;6.30;99.90;;;;;;5082764;28;20036;-82
2023/12/20 02:27:08;;;;;;;1999.90;999.90;;;6.30;99.90;;;;;;5075947;28;20032;-83
2023/12/20 02:29:35;;;;;;;1999.90;999.90;;;6.30;99.90;;;;;;5079877;28;20036;-82
2023/12/20 02:32:01;;;;;;;1999.90;999.90;;;6.30;99.90;;;;;;5086159;28;20032;-82
2023/12/20 02:34:26;;;;;;;1999.90;999.90;;;6.30;99.90;;;;;;5073342;28;20047;-82
2023/12/20 02:36:52;;;;;;;1999.90;999.90;;;6.30;99.90;;;;;;5072519;28;20046;-83
2023/12/20 02:39:18;;;;;;;1999.90;999.90;;;6.30;99.90;;;;;;5077722;28;20039;-83
2023/12/20 02:41:44;;;;;;;1999.90;999.90;;;6.30;99.90;;;;;;5071298;28;20028;-82
2023/12/20 02:44:10;;;;;;;1999.90;999.90;;;6.30;99.90;;;;;;5090948;28;20039;-83
2023/12/20 02:46:35;;;;;;;1999.90;999.90;;;6.30;99.90;;;;;;5091198;28;20031;-83
2023/12/20 02:49:01;;;;;;;1999.90;999.90;;;6.30;99.90;;;;;;5063244;28;20052;-84
2023/12/20 02:51:27;;;;;;;1999.90;999.90;;;6.40;99.90;;;;;;5070860;28;20071;-82
2023/12/20 02:53:52;;;;;;;1999.90;999.90;;;6.50;99.90;;;;;;5081562;28;20047;-82
2023/12/20 02:56:18;;;;;;;1999.90;999.90;;;6.50;99.90;;;;;;5061764;28;20162;-83
2023/12/20 02:58:43;;;;;;;1999.90;999.90;;;6.50;99.90;;;;;;5082566;28;20031;-82
2023/12/20 03:01:09;;;;;;;1999.90;999.90;;;6.60;99.90;;;;;;5063998;28;20166;-82
2023/12/20 03:03:35;;;;;;;1999.90;999.90;;;6.60;99.90;;;;;;5071144;28;20035;-83
2023/12/20 03:06:00;;;;;;;1999.90;999.90;;;6.60;99.90;;;;;;5069310;28;20031;-83
2023/12/20 03:08:26;;;;;;;1999.90;999.90;;;6.60;99.90;;;;;;5065035;28;20048;-82
2023/12/20 03:10:53;;;;;;;1999.90;999.90;;;6.60;99.90;;;;;;5083220;28;20032;-82
2023/12/20 03:13:19;;;;;;;1999.90;999.90;;;6.60;99.90;;;;;;5068242;28;20411;-82
2023/12/20 03:15:45;;;;;;;1999.90;999.90;;;6.70;99.90;;;;;;5064793;28;20106;-83
2023/12/20 03:18:10;;;;;;;1999.90;999.90;;;6.70;99.90;;;;;;5070434;28;20104;-83
2023/12/20 03:20:36;;;;;;;1999.90;999.90;;;6.80;99.90;;;;;;5084784;28;20149;-82
2023/12/20 03:23:02;;;;;;;1999.90;999.90;;;6.80;99.90;;;;;;5099616;28;20476;-82
2023/12/20 03:25:27;;;;;;;1999.90;999.90;;;6.90;99.90;;;;;;5080672;28;20036;-82
2023/12/20 03:27:53;;;;;;;1999.90;999.90;;;6.90;99.90;;;;;;5082396;28;20044;-84
2023/12/20 03:30:19;;;;;;;1999.90;999.90;;;6.90;99.90;;;;;;5084420;28;20039;-82
2023/12/20 03:32:46;;;;;;;1999.90;999.90;;;6.90;99.90;;;;;;5065418;28;20054;-82
2023/12/20 03:35:12;;;;;;;1999.90;999.90;;;6.90;99.90;;;;;;5089394;28;20031;-84
2023/12/20 03:37:38;;;;;;;1999.90;999.90;;;6.80;99.90;;;;;;5058714;28;20043;-82
2023/12/20 03:40:04;;;;;;;1999.90;999.90;;;6.80;99.90;;;;;;5078461;28;20400;-82
2023/12/20 03:42:29;;;;;;;1999.90;999.90;;;6.70;99.90;;;;;;5078483;28;20035;-82
2023/12/20 03:44:55;;;;;;;1999.90;999.90;;;6.70;99.90;;;;;;5093189;28;20043;-82
2023/12/20 03:47:20;;;;;;;1999.90;999.90;;;6.70;99.90;;;;;;5078923;28;20040;-82
2023/12/20 03:49:46;;;;;;;1999.90;999.90;;;6.70;99.90;;;;;;5066978;28;20523;-83
2023/12/20 03:52:12;;;;;;;1999.90;999.90;;;6.80;99.90;;;;;;5066392;28;20220;-82
2023/12/20 03:54:37;;;;;;;1999.90;999.90;;;6.80;99.90;;;;;;5078302;28;20093;-84
2023/12/20 03:57:04;;;;;;;1999.90;999.90;;;6.90;99.90;;;;;;5067347;28;20119;-83
2023/12/20 03:59:34;;;;;;;1999.90;999.90;;;6.90;99.90;;;;;;5064156;28;20525;-82
2023/12/20 04:01:59;;;;;;;1999.90;999.90;;;6.90;99.90;;;;;;5070920;28;20046;-82
2023/12/20 04:04:25;;;;;;;1999.90;999.90;;;6.90;99.90;;;;;;5101378;28;20399;-83
2023/12/20 04:06:51;;;;;;;1999.90;999.90;;;6.90;99.90;;;;;;5067604;28;20716;-83
2023/12/20 04:09:16;;;;;;;1999.90;999.90;;;6.90;99.90;;;;;;5074503;28;20035;-82
2023/12/20 04:11:42;;;;;;;1999.90;999.90;;;6.90;99.90;;;;;;5066651;28;20436;-83
2023/12/20 04:14:07;;;;;;;1999.90;999.90;;;7.00;99.90;;;;;;5097038;28;20116;-82
2023/12/20 04:16:33;;;;;;;1999.90;999.90;;;7.00;99.90;;;;;;5102799;28;20048;-83
2023/12/20 04:18:59;;;;;;;1999.90;999.90;;;7.10;99.90;;;;;;5101038;28;20068;-83
2023/12/20 04:21:24;;;;;;;1999.90;999.90;;;7.10;99.90;;;;;;5101261;28;20043;-86
2023/12/20 04:23:50;;;;;;;1999.90;999.90;;;7.10;99.90;;;;;;5059534;28;20040;-82
2023/12/20 04:26:15;;;;;;;1999.90;999.90;;;7.10;99.90;;;;;;5103234;28;20109;-83
2023/12/20 04:28:42;;;;;;;1999.90;999.90;;;7.10;99.90;;;;;;5063568;28;20082;-82
2023/12/20 04:31:07;;;;;;;1999.90;999.90;;;7.20;99.90;;;;;;5069446;28;20047;-82
2023/12/20 04:33:33;;;;;;;1999.90;999.90;;;7.20;99.90;;;;;;5084749;28;20036;-85
2023/12/20 04:35:59;;;;;;;1999.90;999.90;;;7.20;99.90;;;;;;5090206;28;20539;-83
2023/12/20 04:38:25;;;;;;;1999.90;999.90;;;7.20;99.90;;;;;;5108185;28;20074;-83
2023/12/20 04:40:51;;;;;;;1999.90;999.90;;;7.20;99.90;;;;;;5079524;28;20500;-82
2023/12/20 04:43:17;;;;;;;1999.90;999.90;;;7.20;99.90;;;;;;5091944;28;20167;-83
2023/12/20 04:45:42;;;;;;;1999.90;999.90;;;7.10;99.90;;;;;;5107789;28;20567;-85
2023/12/20 04:48:08;;;;;;;1999.90;999.90;;;7.20;99.90;;;;;;5089190;28;20055;-82
2023/12/20 04:50:33;;;;;;;1999.90;999.90;;;7.20;99.90;;;;;;5083517;28;20055;-82
2023/12/20 04:52:59;;;;;;;1999.90;999.90;;;7.30;99.90;;;;;;5070982;28;20077;-83
2023/12/20 04:55:25;;;;;;;1999.90;999.90;;;7.30;99.90;;;;;;5065624;28;20046;-83
2023/12/20 04:57:50;;;;;;;1999.90;999.90;;;7.40;99.90;;;;;;5088910;28;20072;-83
2023/12/20 05:00:16;;;;;;;1999.90;999.90;;;7.40;99.90;;;;;;5106103;28;20043;-82
2023/12/20 05:02:42;;;;;;;1999.90;999.90;;;7.40;99.90;;;;;;5088917;28;20039;-82
2023/12/20 05:05:08;;;;;;;1999.90;999.90;;;7.40;99.90;;;;;;5110728;28;20542;-82
2023/12/20 05:07:33;;;;;;;1999.90;999.90;;;7.40;99.90;;;;;;5086893;28;20047;-82
2023/12/20 05:09:59;;;;;;;1999.90;999.90;;;7.40;99.90;;;;;;5064569;28;20088;-82
2023/12/20 05:12:25;;;;;;;1999.90;999.90;;;7.40;99.90;;;;;;5071018;28;20060;-85
2023/12/20 05:14:52;;;;;;;1999.90;999.90;;;7.50;99.90;;;;;;5059500;28;20072;-82
2023/12/20 05:17:17;;;;;;;1999.90;999.90;;;7.50;99.90;;;;;;5067050;28;20040;-82
2023/12/20 05:19:43;;;;;;;1999.90;999.90;;;7.50;99.90;;;;;;5080583;28;20086;-83
2023/12/20 05:22:09;;;;;;;1999.90;999.90;;;7.60;99.90;;;;;;5050660;28;20062;-83
2023/12/20 05:24:35;;;;;;;1999.90;999.90;;;7.60;99.90;;;;;;5072392;28;20041;-85
2023/12/20 05:27:00;;;;;;;1999.90;999.90;;;7.60;99.90;;;;;;5083544;28;20044;-84
2023/12/20 05:29:26;;;;;;;1999.90;999.90;;;7.70;99.90;;;;;;5086462;28;20048;-83
2023/12/20 05:31:52;;;;;;;1999.90;999.90;;;7.60;99.90;;;;;;5086728;28;20122;-83
2023/12/20 05:34:17;;;;;;;1999.90;999.90;;;7.60;99.90;;;;;;5088138;28;20048;-83
2023/12/20 05:36:43;;;;;;;1999.90;999.90;;;7.60;99.90;;;;;;5078974;28;20039;-82
2023/12/20 05:39:08;;;;;;;1999.90;999.90;;;7.60;99.90;;;;;;5082524;28;20044;-83
2023/12/20 05:41:34;;;;;;;1999.90;999.90;;;7.60;99.90;;;;;;5065700;28;20145;-83
2023/12/20 05:44:00;;;;;;;1999.90;999.90;;;7.60;99.90;;;;;;5077885;28;20040;-83
2023/12/20 05:46:27;;;;;;;1999.90;999.90;;;7.60;99.90;;;;;;5068146;28;20453;-82
2023/12/20 05:48:53;;;;;;;1999.90;999.90;;;7.60;99.90;;;;;;5069151;28;20052;-82
2023/12/20 05:51:18;;;;;;;1999.90;999.90;;;7.60;99.90;;;;;;5074027;28;20100;-83
2023/12/20 05:53:44;;;;;;;1999.90;999.90;;;7.60;99.90;;;;;;5085278;28;20503;-84
2023/12/20 05:56:10;;;;;;;1999.90;999.90;;;7.60;99.90;;;;;;5079591;28;20039;-83
2023/12/20 05:58:37;;;;;;;1999.90;999.90;;;7.70;99.90;;;;;;5079748;28;20044;-82
2023/12/20 06:01:08;;;;;;;1999.90;999.90;;;7.70;99.90;;;;;;5086758;28;20086;-82
2023/12/20 06:03:34;;;;;;;1999.90;999.90;;;7.70;99.90;;;;;;5073790;28;20088;-81
2023/12/20 06:06:04;;;;;;;1999.90;999.90;;;7.70;99.90;;;;;;5083443;28;20031;-82
2023/12/20 06:08:29;;;;;;;1999.90;999.90;;;7.80;99.90;;;;;;5108152;28;20032;-82
2023/12/20 06:10:55;;;;;;;1999.90;999.90;;;7.70;99.90;;;;;;5071690;28;20256;-82
2023/12/20 06:13:20;;;;;;;1999.90;999.90;;;7.70;99.90;;;;;;5078354;28;20039;-82
2023/12/20 06:15:46;;;;;;;1999.90;999.90;;;7.70;99.90;;;;;;5076869;28;20039;-83
2023/12/20 06:18:12;;;;;;;1999.90;999.90;;;7.70;99.90;;;;;;5104114;28;20067;-82
2023/12/20 06:20:37;;;;;;;1999.90;999.90;;;7.80;99.90;;;;;;5083402;28;20396;-83
2023/12/20 06:23:03;;;;;;;1999.90;999.90;;;7.80;99.90;;;;;;5068843;28;20479;-83
2023/12/20 06:25:28;;;;;;;1999.90;999.90;;;7.90;99.90;;;;;;5065800;28;20039;-85
2023/12/20 06:27:54;;;;;;;1999.90;999.90;;;7.90;99.90;;;;;;5059830;28;20044;-81
2023/12/20 06:30:20;;;;;;;1999.90;999.90;;;8.00;99.90;;;;;;5097939;28;20031;-81
2023/12/20 06:32:46;;;;;;;1999.90;999.90;;;8.00;99.90;;;;;;5065551;28;20130;-81
2023/12/20 06:35:12;;;;;;;1999.90;999.90;;;8.00;99.90;;;;;;5081246;28;20051;-81
2023/12/20 06:37:42;;;;;;;1999.90;999.90;;;7.90;99.90;;;;;;5084092;28;20035;-82
2023/12/20 06:40:09;;;;;;;1999.90;999.90;;;7.90;99.90;;;;;;5085946;28;20495;-82
2023/12/20 06:42:35;;;;;;;1999.90;999.90;;;8.00;99.90;;;;;;5082576;28;20039;-84
2023/12/20 06:45:00;;;;;;;1999.90;999.90;;;8.00;99.90;;;;;;5070387;28;20035;-82
2023/12/20 06:47:26;;;;;;;1999.90;999.90;;;8.00;99.90;;;;;;5089595;28;20039;-81
2023/12/20 06:49:52;;;;;;;1999.90;999.90;;;8.00;99.90;;;;;;5077162;28;20047;-84
2023/12/20 06:52:17;;;;;;;1999.90;999.90;;;8.10;99.90;;;;;;5081985;28;20582;-83
2023/12/20 06:54:43;;;;;;;1999.90;999.90;;;8.10;99.90;;;;;;5083395;28;20180;-82
2023/12/20 06:57:09;;;;;;;1999.90;999.90;;;8.00;99.90;;;;;;5087636;28;20050;-84
2023/12/20 06:59:39;;;;;;;1999.90;999.90;;;8.10;99.90;;;;;;5076819;28;20036;-82
2023/12/20 07:02:05;;;;;;;1999.90;999.90;;;8.20;99.90;;;;;;5096706;28;20043;-82
2023/12/20 07:04:31;;;;;;;1999.90;999.90;;;8.10;99.90;;;;;;5083104;28;20043;-82
2023/12/20 07:07:00;;;;;;;1999.90;999.90;;;8.20;99.90;;;;;;5085710;28;20466;-86
2023/12/20 07:09:26;;;;;;;1999.90;999.90;;;8.20;99.90;;;;;;5083257;28;20039;-83
2023/12/20 07:11:54;;;;;;;1999.90;999.90;;;8.20;99.90;;;;;;5069607;28;20066;-83
2023/12/20 07:14:20;;;;;;;1999.90;999.90;;;8.20;99.90;;;;;;5066671;28;20058;-85
2023/12/20 07:16:46;;;;;;;1999.90;999.90;;;8.20;99.90;;;;;;5057268;28;20431;-83
2023/12/20 07:19:11;;;;;;;1999.90;999.90;;;8.20;99.90;;;;;;5072732;28;20044;-82
2023/12/20 07:21:37;;;;;;;1999.90;999.90;;;8.20;99.90;;;;;;5083288;28;21395;-83
2023/12/20 07:24:03;;;;;;;1999.90;999.90;;;8.20;99.90;;;;;;5065536;28;20043;-85
2023/12/20 07:26:28;;;;;;;1999.90;999.90;;;8.30;99.90;;;;;;5081204;28;20453;-82
2023/12/20 07:28:58;;;;;;;1999.90;999.90;;;8.30;99.90;;;;;;5067015;28;20101;-84
2023/12/20 07:31:24;;;;;;;1999.90;999.90;;;8.30;99.90;;;;;;5065886;28;20048;-85
2023/12/20 07:33:50;;;;;;;1999.90;999.90;;;8.30;99.90;;;;;;5066181;28;20077;-84
2023/12/20 07:36:15;;;;;;;1999.90;999.90;;;8.40;99.90;;;;;;5074642;28;20058;-85
2023/12/20 07:38:42;;;;;;;1999.90;999.90;;;8.40;99.90;;;;;;5069557;28;20150;-82
2023/12/20 07:41:10;;;;;;;1999.90;999.90;;;8.40;99.90;;;;;;5096350;28;20097;-84
2023/12/20 07:43:36;;;;;;;1999.90;999.90;;;8.40;99.90;;;;;;5062161;28;20043;-83
2023/12/20 07:46:06;;;;;;;1999.90;999.90;;;8.40;99.90;;;;;;5078507;28;20044;-84
2023/12/20 07:48:32;;;;;;;1999.90;999.90;;;8.40;99.90;;;;;;5074324;28;20088;-83
2023/12/20 07:51:01;;;;;;;1999.90;999.90;;;8.40;99.90;;;;;;5050422;28;20048;-82
2023/12/20 07:53:27;;;;;;;1999.90;999.90;;;8.40;99.90;;;;;;5053228;28;20046;-82
2023/12/20 07:55:53;;;;;;;1999.90;999.90;;;8.40;99.90;;;;;;5041904;28;20059;-84
2023/12/20 07:58:19;;;;;;;1999.90;999.90;;;8.40;99.90;;;;;;5050272;28;20078;-84
2023/12/20 08:00:44;;;;;;;1999.90;999.90;;;8.40;99.90;;;;;;5047970;28;20503;-83
2023/12/20 08:03:10;;;;;;;1999.90;999.90;;;8.40;99.90;;;;;;5051571;28;20047;-82
2023/12/20 08:05:37;;;;;;;1999.90;999.90;;;8.50;99.90;;;;;;5068386;28;20119;-82
2023/12/20 08:08:02;;;;;;;1999.90;999.90;;;8.40;99.90;;;;;;5063277;28;20044;-85
2023/12/20 08:10:31;;;;;;;1999.90;999.90;;;8.40;99.90;;;;;;5067336;28;20067;-82
2023/12/20 08:12:57;;;;;;;1999.90;999.90;;;8.50;99.90;;;;;;5059834;28;20051;-83
2023/12/20 08:15:23;;;;;;;1999.90;999.90;;;8.40;99.90;;;;;;5054078;28;20037;-83
2023/12/20 08:17:50;;;;;;;1999.90;999.90;;;8.40;99.90;;;;;;5046376;28;20048;-87
2023/12/20 08:20:16;;;;;;;1999.90;999.90;;;8.30;99.90;;;;;;5070102;28;20040;-83
2023/12/20 08:22:42;;;;;;;1999.90;999.90;;;8.40;99.90;;;;;;5043318;28;20079;-83
2023/12/20 08:25:08;;;;;;;1999.90;999.90;;;8.40;99.90;;;;;;5061461;28;20072;-85
2023/12/20 08:27:39;;;;;;;1999.90;999.90;;;8.30;99.90;;;;;;5067973;28;20063;-82
2023/12/20 08:30:06;;;;;;;1999.90;999.90;;;8.30;99.90;;;;;;5050034;28;20048;-83
2023/12/20 08:32:32;;;;;;;1999.90;999.90;;;8.40;99.90;;;;;;5048199;28;20036;-84
2023/12/20 08:34:58;;;;;;;1999.90;999.90;;;8.40;99.90;;;;;;5061378;28;20046;-85
2023/12/20 08:37:23;;;;;;;1999.90;999.90;;;8.30;99.90;;;;;;5063347;28;20500;-85
2023/12/20 08:39:49;;;;;;;1999.90;999.90;;;8.30;99.90;;;;;;5051939;28;20036;-82
2023/12/20 08:42:14;;;;;;;1999.90;999.90;;;8.30;99.90;;;;;;5070294;28;20495;-82
2023/12/20 08:44:40;;;;;;;1999.90;999.90;;;8.40;99.90;;;;;;5071948;28;20055;-86
2023/12/20 08:47:06;;;;;;;1999.90;999.90;;;8.40;99.90;;;;;;5047639;28;20036;-84
2023/12/20 08:49:31;;;;;;;1999.90;999.90;;;8.40;99.90;;;;;;5081572;28;20138;-82
2023/12/20 08:51:57;;;;;;;1999.90;999.90;;;8.40;99.90;;;;;;5094716;28;20457;-84
2023/12/20 08:54:22;;;;;;;1999.90;999.90;;;8.40;99.90;;;;;;5111944;28;20043;-86
2023/12/20 08:56:48;;;;;;;1999.90;999.90;;;8.40;99.90;;;;;;5073862;28;20075;-82
2023/12/20 08:59:14;;;;;;;1999.90;999.90;;;8.40;99.90;;;;;;5072835;28;20105;-83
2023/12/20 09:01:39;;;;;;;1999.90;999.90;;;8.30;99.90;;;;;;5104038;28;20097;-82
2023/12/20 09:04:06;;;;;;;1999.90;999.90;;;8.40;99.90;;;;;;5073704;28;20503;-84
2023/12/20 09:06:32;;;;;;;1999.90;999.90;;;8.40;99.90;;;;;;5059935;28;20096;-86
2023/12/20 09:08:57;;;;;;;1999.90;999.90;;;8.20;99.90;;;;;;5070479;28;20373;-82
2023/12/20 09:11:23;;;;;;;1999.90;999.90;;;7.80;99.90;;;;;;5069362;28;20043;-84
2023/12/20 09:13:48;;;;;;;1999.90;999.90;;;7.40;99.90;;;;;;5070914;28;20079;-82
2023/12/20 09:16:15;;;;;;;1999.90;999.90;;;7.10;99.90;;;;;;5104998;28;20043;-83
2023/12/20 09:18:41;;;;;;;1999.90;999.90;;;6.90;99.90;;;;;;5089488;28;20042;-85
2023/12/20 09:21:07;;;;;;;1999.90;999.90;;;6.80;99.90;;;;;;5088692;28;20187;-84
2023/12/20 09:23:33;;;;;;;1999.90;999.90;;;6.60;99.90;;;;;;5097168;28;20034;-83
2023/12/20 09:25:58;;;;;;;1999.90;999.90;;;6.50;99.90;;;;;;5088007;28;20039;-83
2023/12/20 09:28:24;;;;;;;1999.90;999.90;;;6.30;99.90;;;;;;5063078;28;20035;-86
2023/12/20 09:30:50;;;;;;;1999.90;999.90;;;6.40;99.90;;;;;;5088507;28;20048;-81
2023/12/20 09:33:16;;;;;;;1999.90;999.90;;;6.30;99.90;;;;;;5066527;28;20135;-82
2023/12/20 09:35:42;;;;;;;1999.90;999.90;;;6.30;99.90;;;;;;5080306;28;20435;-83
2023/12/20 09:38:07;;;;;;;1999.90;999.90;;;6.30;99.90;;;;;;5060760;28;20047;-81
2023/12/20 09:40:36;;;;;;;1999.90;999.90;;;6.30;99.90;;;;;;5085017;28;20035;-83
2023/12/20 09:43:08;;;;;;;1999.90;999.90;;;6.40;99.90;;;;;;5081243;28;20169;-82
2023/12/20 09:45:34;;;;;;;1999.90;999.90;;;6.40;99.90;;;;;;5079662;28;20043;-81
2023/12/20 09:48:00;;;;;;;1999.90;999.90;;;6.50;99.90;;;;;;5086734;28;20166;-84
2023/12/20 09:50:26;;;;;;;1999.90;999.90;;;6.50;99.90;;;;;;5068226;28;20126;-83
2023/12/20 09:52:52;;;;;;;1999.90;999.90;;;6.60;99.90;;;;;;5103182;28;20501;-81
2023/12/20 09:55:19;;;;;;;1999.90;999.90;;;6.60;99.90;;;;;;5078473;28;20051;-81
2023/12/20 09:57:46;;;;;;;1999.90;999.90;;;6.60;99.90;;;;;;5064329;28;20257;-82
2023/12/20 10:00:12;;;;;;;1999.90;999.90;;;6.60;99.90;;;;;;5087958;28;20396;-83
2023/12/20 10:02:57;;;;;;;1999.90;999.90;;;6.60;99.90;;;;;;5081009;28;20448;-81
2023/12/20 10:05:30;;;;;;;1999.90;999.90;;;6.70;99.90;;;;;;5074548;28;20039;-81
2023/12/20 10:07:56;;;;;;;1999.90;999.90;;;6.80;99.90;;;;;;5070434;28;20184;-82
2023/12/20 10:10:22;;;;;;;1999.90;999.90;;;6.90;99.90;;;;;;5064191;28;20644;-83
2023/12/20 10:13:24;;;;;;;1999.90;999.90;;;6.90;99.90;;;;;;5074565;28;20048;-81
2023/12/20 10:15:49;;;;;;;1999.90;999.90;;;6.90;99.90;;;;;;4990433;28;20041;-82
2023/12/20 10:18:16;;;;;;;1999.90;999.90;;;6.90;99.90;;;;;;5009462;28;20054;-82
2023/12/20 10:20:42;;;;;;;1999.90;999.90;;;6.90;99.90;;;;;;5012461;28;20045;-81
2023/12/20 10:23:08;;;;;;;1999.90;999.90;;;6.80;99.90;;;;;;5017122;28;20081;-82
2023/12/20 10:25:34;;;;;;;1999.90;999.90;;;6.90;99.90;;;;;;4995958;28;20145;-81
2023/12/20 10:28:11;;;;;;;1999.90;999.90;;;7.00;99.90;;;;;;5009286;28;20113;-82
2023/12/20 10:30:36;;;;;;;1999.90;999.90;;;7.10;99.90;;;;;;5009508;28;20084;-81
2023/12/20 10:33:02;;;;;;;1999.90;999.90;;;7.10;99.90;;;;;;5014032;28;20694;-81
2023/12/20 10:35:28;;;;;;;1999.90;999.90;;;7.10;99.90;;;;;;4991635;28;20136;-82
2023/12/20 10:37:59;;;;;;;1999.90;999.90;;;7.10;99.90;;;;;;5009529;28;20049;-82
2023/12/20 10:40:27;;;;;;;1999.90;999.90;;;7.20;99.90;;;;;;5009412;28;20116;-82
2023/12/20 10:42:54;;;;;;;1999.90;999.90;;;7.40;99.90;;;;;;4994108;28;20048;-82
2023/12/20 10:45:19;;;;;;;1999.90;999.90;;;7.40;99.90;;;;;;5016785;28;20106;-81
2023/12/20 10:47:46;;;;;;;1999.90;999.90;;;7.40;99.90;;;;;;5009263;28;20058;-82
2023/12/20 10:50:12;;;;;;;1999.90;999.90;;;7.30;99.90;;;;;;5061081;28;20077;-82
2023/12/20 10:52:40;;;;;;;1999.90;999.90;;;7.20;99.90;;;;;;5061030;28;20047;-82
2023/12/20 10:55:06;;;;;;;1999.90;999.90;;;7.20;99.90;;;;;;5084665;28;20051;-82
2023/12/20 10:57:32;;;;;;;1999.90;999.90;;;7.10;99.90;;;;;;5063943;28;20075;-81
2023/12/20 11:00:04;;;;;;;1999.90;999.90;;;7.10;99.90;;;;;;5077146;28;20038;-81
2023/12/20 11:02:32;;;;;;;1999.90;999.90;;;7.20;99.90;;;;;;5063609;28;20500;-81
2023/12/20 11:05:36;;;;;;;1999.90;999.90;;;7.20;99.90;;;;;;5088710;28;20044;-81
2023/12/20 11:08:22;;;;;;;1999.90;999.90;;;7.30;99.90;;;;;;5077408;28;20158;-81
2023/12/20 11:11:21;;;;;;;1999.90;999.90;;;7.30;99.90;;;;;;5086484;28;20047;-82
2023/12/20 11:14:01;;;;;;;1999.90;999.90;;;7.40;99.90;;;;;;5077182;28;20081;-82
2023/12/20 11:16:27;;;;;;;1999.90;999.90;;;7.40;99.90;;;;;;5068700;28;20052;-82
2023/12/20 11:18:52;;;;;;;1999.90;999.90;;;7.40;99.90;;;;;;5059252;28;20437;-81
2023/12/20 11:21:18;;;;;;;1999.90;999.90;;;7.50;99.90;;;;;;5066324;28;20036;-82
2023/12/20 11:23:44;;;;;;;1999.90;999.90;;;7.50;99.90;;;;;;5060821;28;20067;-81
2023/12/20 11:26:09;;;;;;;1999.90;999.90;;;7.50;99.90;;;;;;5080022;28;20042;-81
2023/12/20 11:28:35;;;;;;;1999.90;999.90;;;7.50;99.90;;;;;;5080987;28;20521;-81
2023/12/20 11:31:02;;;;;;;1999.90;999.90;;;7.50;99.90;;;;;;5095679;28;20067;-81
2023/12/20 11:33:48;;;;;;;1999.90;999.90;;;7.60;99.90;;;;;;5079359;28;20130;-81
2023/12/20 11:36:20;;;;;;;1999.90;999.90;;;7.60;99.90;;;;;;5102409;28;20055;-81
2023/12/20 11:38:57;;;;;;;1999.90;999.90;;;7.70;99.90;;;;;;5089031;28;20104;-82
2023/12/20 11:41:27;;;;;;;1999.90;999.90;;;7.80;99.90;;;;;;5081443;28;20027;-82
2023/12/20 11:43:56;;;;;;;1999.90;999.90;;;7.90;99.90;;;;;;5082399;28;20498;-81
2023/12/20 11:46:22;;;;;;;1999.90;999.90;;;8.00;99.90;;;;;;5084850;28;20385;-81
2023/12/20 11:48:48;;;;;;;1999.90;999.90;;;8.10;99.90;;;;;;5084019;28;20051;-82
2023/12/20 11:51:14;;;;;;;1999.90;999.90;;;8.00;99.90;;;;;;5076051;28;20108;-81
2023/12/20 11:53:42;;;;;;;1999.90;999.90;;;8.10;99.90;;;;;;5054095;28;20091;-82
2023/12/20 11:56:08;;;;;;;1999.90;999.90;;;8.00;99.90;;;;;;5083017;28;20039;-81
2023/12/20 11:58:34;;;;;;;1999.90;999.90;;;8.00;99.90;;;;;;5074396;28;20552;-82
2023/12/20 12:01:02;;;;;;;1999.90;999.90;;;7.90;99.90;;;;;;5060745;28;20139;-81
2023/12/20 12:03:28;;;;;;;1999.90;999.90;;;8.00;99.90;;;;;;5061235;28;20067;-81
2023/12/20 12:05:53;;;;;;;1999.90;999.90;;;8.00;99.90;;;;;;5084456;28;20535;-81